Terminal Aerodrome Forecast
Issued by NWS Grand Forks, ND

Home | Current Version | Previous Version | Text Only | Print | Product List | Glossary On
Versions: 1 2 3 4 5 6 7 8 9 10 11 12 13 14 15 16 17 18 19
497
FTUS43 KFGF 232130 AAA
TAFFAR
TAF AMD
KFAR 232130Z 2322/2418 16017KT P6SM VCTS BKN040CB OVC080
     FM232300 VRB06KT P6SM OVC025
     FM240300 VRB06KT P6SM OVC015
     FM241700 36012KT P6SM SCT025=

USA.gov is the U.S. government's official web portal to all federal, state and local government web resources and services.